SWA2764 KLAS-KONT
Flight info
| Callsign | SWA2764 |
|---|---|
| Flight time | 0h 34m |
| Altitude | 26000 |
| Route | RADYR2 SLVRR FEYLA JCKIE2 |
| Aircraft | B737/M-SADE2E3GIJ4RWZ/LB1D1 |
Departure
| Time | 2026-05-05 17:35 |
|---|---|
| Airport | Harry Reid International Airport (KLAS) |
Arrival
| Time | 2026-05-05 18:09 |
|---|---|
| Airport | Ontario International Airport (KONT) |
| Time | Latitude | Longitude | Altitude | Speed | Heading |
|---|---|---|---|---|---|
| 2026-05-05 17:01 | 36.08094 | -115.14608 | 2103 ft | 0 kts | 247° |
| 2026-05-05 17:21 | 36.08096 | -115.14603 | 2103 ft | 2 kts | 247° |
| 2026-05-05 17:22 | 36.08107 | -115.14569 | 2101 ft | 2 kts | 247° |
| 2026-05-05 17:22 | 36.08111 | -115.14558 | 2100 ft | 2 kts | 243° |
| 2026-05-05 17:22 | 36.08120 | -115.14544 | 2099 ft | 2 kts | 216° |
| 2026-05-05 17:22 | 36.08134 | -115.14535 | 2099 ft | 2 kts | 195° |
| 2026-05-05 17:23 | 36.08149 | -115.14533 | 2099 ft | 2 kts | 174° |
| 2026-05-05 17:23 | 36.08160 | -115.14536 | 2099 ft | 0 kts | 158° |
| 2026-05-05 17:23 | 36.08166 | -115.14540 | 2099 ft | 0 kts | 154° |
| 2026-05-05 17:27 | 36.08164 | -115.14539 | 2099 ft | 1 kts | 154° |
| 2026-05-05 17:27 | 36.08141 | -115.14526 | 2099 ft | 7 kts | 155° |
| 2026-05-05 17:28 | 36.08076 | -115.14491 | 2099 ft | 10 kts | 163° |
| 2026-05-05 17:28 | 36.08002 | -115.14484 | 2099 ft | 10 kts | 180° |
| 2026-05-05 17:28 | 36.07932 | -115.14484 | 2100 ft | 9 kts | 180° |
| 2026-05-05 17:28 | 36.07872 | -115.14484 | 2101 ft | 8 kts | 172° |
| 2026-05-05 17:29 | 36.07830 | -115.14407 | 2100 ft | 16 kts | 93° |
| 2026-05-05 17:29 | 36.07826 | -115.14228 | 2093 ft | 22 kts | 90° |
| 2026-05-05 17:29 | 36.07825 | -115.14019 | 2087 ft | 25 kts | 91° |
| 2026-05-05 17:29 | 36.07824 | -115.13806 | 2080 ft | 20 kts | 89° |
| 2026-05-05 17:30 | 36.07825 | -115.13625 | 2075 ft | 21 kts | 89° |
| 2026-05-05 17:30 | 36.07827 | -115.13431 | 2070 ft | 23 kts | 90° |
| 2026-05-05 17:30 | 36.07825 | -115.13219 | 2066 ft | 25 kts | 90° |
| 2026-05-05 17:30 | 36.07826 | -115.13001 | 2061 ft | 23 kts | 90° |
| 2026-05-05 17:31 | 36.07827 | -115.12794 | 2057 ft | 25 kts | 90° |
| 2026-05-05 17:31 | 36.07827 | -115.12573 | 2054 ft | 24 kts | 90° |
| 2026-05-05 17:31 | 36.07827 | -115.12399 | 2052 ft | 15 kts | 90° |
| 2026-05-05 17:31 | 36.07826 | -115.12287 | 2050 ft | 11 kts | 95° |
| 2026-05-05 17:32 | 36.07794 | -115.12215 | 2050 ft | 8 kts | 127° |
| 2026-05-05 17:32 | 36.07767 | -115.12173 | 2050 ft | 3 kts | 128° |
| 2026-05-05 17:32 | 36.07749 | -115.12147 | 2049 ft | 3 kts | 133° |
| 2026-05-05 17:32 | 36.07746 | -115.12142 | 2049 ft | 0 kts | 135° |
| 2026-05-05 17:33 | 36.07745 | -115.12142 | 2049 ft | 1 kts | 135° |
| 2026-05-05 17:34 | 36.07714 | -115.12124 | 2049 ft | 8 kts | 179° |
| 2026-05-05 17:34 | 36.07650 | -115.12128 | 2050 ft | 7 kts | 208° |
| 2026-05-05 17:34 | 36.07640 | -115.12154 | 2050 ft | 0 kts | 271° |
| 2026-05-05 17:34 | 36.07640 | -115.12157 | 2050 ft | 2 kts | 271° |
| 2026-05-05 17:35 | 36.07641 | -115.12453 | 2053 ft | 72 kts | 270° |
| 2026-05-05 17:35 | 36.07643 | -115.13358 | 2071 ft | 135 kts | 269° |
| 2026-05-05 17:35 | 36.07642 | -115.14651 | 2439 ft | 155 kts | 268° |
| 2026-05-05 17:35 | 36.07653 | -115.15982 | 3091 ft | 160 kts | 268° |
| 2026-05-05 17:36 | 36.07651 | -115.17376 | 3626 ft | 170 kts | 265° |
| 2026-05-05 17:36 | 36.07582 | -115.18919 | 4006 ft | 192 kts | 265° |
| 2026-05-05 17:36 | 36.07556 | -115.20666 | 4424 ft | 215 kts | 269° |
| 2026-05-05 17:36 | 36.07452 | -115.22560 | 4999 ft | 228 kts | 258° |
| 2026-05-05 17:37 | 36.06970 | -115.24495 | 5521 ft | 244 kts | 242° |
| 2026-05-05 17:37 | 36.06321 | -115.25647 | 5955 ft | 250 kts | 225° |
| 2026-05-05 17:37 | 36.04331 | -115.27155 | 6848 ft | 264 kts | 201° |
| 2026-05-05 17:37 | 36.02571 | -115.27919 | 7418 ft | 279 kts | 198° |
| 2026-05-05 17:38 | 36.00697 | -115.28680 | 7892 ft | 283 kts | 197° |
| 2026-05-05 17:38 | 35.98803 | -115.29424 | 8014 ft | 289 kts | 195° |
| 2026-05-05 17:38 | 35.96825 | -115.30010 | 8843 ft | 293 kts | 191° |
| 2026-05-05 17:38 | 35.94861 | -115.30497 | 9905 ft | 291 kts | 190° |
| 2026-05-05 17:39 | 35.92851 | -115.30981 | 10664 ft | 301 kts | 190° |
| 2026-05-05 17:39 | 35.90751 | -115.31488 | 11275 ft | 317 kts | 190° |
| 2026-05-05 17:39 | 35.88544 | -115.32025 | 11873 ft | 333 kts | 190° |
| 2026-05-05 17:39 | 35.86196 | -115.32600 | 12522 ft | 348 kts | 190° |
| 2026-05-05 17:40 | 35.83804 | -115.33187 | 13382 ft | 355 kts | 190° |
| 2026-05-05 17:40 | 35.81403 | -115.33778 | 14312 ft | 360 kts | 191° |
| 2026-05-05 17:40 | 35.78917 | -115.34387 | 15252 ft | 366 kts | 191° |
| 2026-05-05 17:40 | 35.76419 | -115.35000 | 16180 ft | 371 kts | 191° |
| 2026-05-05 17:41 | 35.73879 | -115.35622 | 17068 ft | 377 kts | 191° |
| 2026-05-05 17:41 | 35.71289 | -115.36256 | 17930 ft | 382 kts | 191° |
| 2026-05-05 17:41 | 35.68675 | -115.36893 | 18781 ft | 388 kts | 191° |
| 2026-05-05 17:41 | 35.66030 | -115.37552 | 19640 ft | 392 kts | 192° |
| 2026-05-05 17:42 | 35.63369 | -115.38468 | 20477 ft | 397 kts | 200° |
| 2026-05-05 17:42 | 35.60884 | -115.39891 | 21278 ft | 402 kts | 210° |
| 2026-05-05 17:42 | 35.58596 | -115.41908 | 22109 ft | 405 kts | 221° |
| 2026-05-05 17:42 | 35.56555 | -115.44298 | 22853 ft | 410 kts | 226° |
| 2026-05-05 17:43 | 35.54630 | -115.46838 | 23629 ft | 413 kts | 229° |
| 2026-05-05 17:43 | 35.52703 | -115.49498 | 24369 ft | 417 kts | 229° |
| 2026-05-05 17:43 | 35.50789 | -115.52172 | 25199 ft | 417 kts | 229° |
| 2026-05-05 17:43 | 35.48877 | -115.54835 | 25660 ft | 424 kts | 229° |
| 2026-05-05 17:44 | 35.46928 | -115.57523 | 25887 ft | 424 kts | 229° |
| 2026-05-05 17:44 | 35.44938 | -115.60247 | 25928 ft | 425 kts | 229° |
| 2026-05-05 17:44 | 35.42983 | -115.62907 | 25933 ft | 417 kts | 229° |
| 2026-05-05 17:44 | 35.41054 | -115.65519 | 25936 ft | 414 kts | 228° |
| 2026-05-05 17:45 | 35.39110 | -115.68144 | 25934 ft | 412 kts | 228° |
| 2026-05-05 17:45 | 35.37170 | -115.70756 | 25937 ft | 414 kts | 228° |
| 2026-05-05 17:45 | 35.35235 | -115.73354 | 25930 ft | 413 kts | 228° |
| 2026-05-05 17:45 | 35.33306 | -115.75938 | 25934 ft | 411 kts | 228° |
| 2026-05-05 17:46 | 35.31376 | -115.78516 | 25939 ft | 411 kts | 228° |
| 2026-05-05 17:46 | 35.29459 | -115.81076 | 25934 ft | 410 kts | 228° |
| 2026-05-05 17:46 | 35.27519 | -115.83666 | 25937 ft | 410 kts | 228° |
| 2026-05-05 17:46 | 35.25606 | -115.86217 | 25935 ft | 411 kts | 228° |
| 2026-05-05 17:47 | 35.23672 | -115.88795 | 25936 ft | 411 kts | 228° |
| 2026-05-05 17:47 | 35.21743 | -115.91361 | 25934 ft | 411 kts | 228° |
| 2026-05-05 17:47 | 35.19799 | -115.93942 | 25932 ft | 411 kts | 228° |
| 2026-05-05 17:47 | 35.17852 | -115.96524 | 25943 ft | 411 kts | 228° |
| 2026-05-05 17:48 | 35.15932 | -115.99071 | 25942 ft | 412 kts | 228° |
| 2026-05-05 17:48 | 35.13971 | -116.01670 | 25941 ft | 412 kts | 228° |
| 2026-05-05 17:48 | 35.12045 | -116.04221 | 25948 ft | 411 kts | 228° |
| 2026-05-05 17:48 | 35.10097 | -116.06799 | 25954 ft | 410 kts | 228° |
| 2026-05-05 17:49 | 35.08168 | -116.09350 | 25943 ft | 410 kts | 228° |
| 2026-05-05 17:49 | 35.06225 | -116.11919 | 25943 ft | 409 kts | 228° |
| 2026-05-05 17:49 | 35.04317 | -116.14437 | 25848 ft | 399 kts | 228° |
| 2026-05-05 17:49 | 35.02466 | -116.16881 | 25511 ft | 390 kts | 228° |
| 2026-05-05 17:50 | 35.00658 | -116.19266 | 25195 ft | 382 kts | 228° |
| 2026-05-05 17:50 | 34.98823 | -116.21611 | 24762 ft | 377 kts | 226° |
| 2026-05-05 17:50 | 34.96913 | -116.23841 | 24253 ft | 389 kts | 224° |
| 2026-05-05 17:50 | 34.94888 | -116.26097 | 23685 ft | 396 kts | 223° |
| 2026-05-05 17:51 | 34.92868 | -116.28319 | 23117 ft | 392 kts | 223° |
| 2026-05-05 17:51 | 34.90868 | -116.30521 | 22564 ft | 388 kts | 223° |
| 2026-05-05 17:51 | 34.88871 | -116.32729 | 22052 ft | 383 kts | 223° |
| 2026-05-05 17:51 | 34.86916 | -116.34933 | 21948 ft | 379 kts | 224° |
| 2026-05-05 17:52 | 34.84999 | -116.37179 | 21914 ft | 385 kts | 225° |
| 2026-05-05 17:52 | 34.83092 | -116.39456 | 21651 ft | 384 kts | 226° |
| 2026-05-05 17:52 | 34.81226 | -116.41696 | 21266 ft | 376 kts | 226° |
| 2026-05-05 17:52 | 34.79457 | -116.44032 | 20966 ft | 369 kts | 231° |
| 2026-05-05 17:53 | 34.77879 | -116.46482 | 20959 ft | 376 kts | 234° |
| 2026-05-05 17:53 | 34.76328 | -116.49083 | 20959 ft | 377 kts | 236° |
| 2026-05-05 17:53 | 34.74824 | -116.51662 | 20970 ft | 376 kts | 236° |
| 2026-05-05 17:53 | 34.73309 | -116.54263 | 20735 ft | 371 kts | 236° |
| 2026-05-05 17:54 | 34.71829 | -116.56793 | 20146 ft | 370 kts | 236° |
| 2026-05-05 17:54 | 34.70354 | -116.59302 | 19577 ft | 367 kts | 236° |
| 2026-05-05 17:54 | 34.68871 | -116.61813 | 19047 ft | 364 kts | 236° |
| 2026-05-05 17:54 | 34.67395 | -116.64304 | 18500 ft | 361 kts | 236° |
| 2026-05-05 17:55 | 34.65930 | -116.66771 | 17978 ft | 358 kts | 235° |
| 2026-05-05 17:55 | 34.64479 | -116.69206 | 17454 ft | 355 kts | 235° |
| 2026-05-05 17:55 | 34.63032 | -116.71635 | 16935 ft | 352 kts | 235° |
| 2026-05-05 17:55 | 34.61615 | -116.74013 | 16413 ft | 350 kts | 235° |
| 2026-05-05 17:56 | 34.60204 | -116.76410 | 15992 ft | 346 kts | 237° |
| 2026-05-05 17:56 | 34.58944 | -116.78876 | 15902 ft | 345 kts | 241° |
| 2026-05-05 17:56 | 34.57789 | -116.81421 | 15511 ft | 342 kts | 243° |
| 2026-05-05 17:56 | 34.56693 | -116.83946 | 14975 ft | 340 kts | 243° |
| 2026-05-05 17:57 | 34.55598 | -116.86484 | 14462 ft | 337 kts | 243° |
| 2026-05-05 17:57 | 34.54470 | -116.88940 | 14024 ft | 334 kts | 239° |
| 2026-05-05 17:57 | 34.53122 | -116.91220 | 13953 ft | 336 kts | 232° |
| 2026-05-05 17:57 | 34.51600 | -116.93407 | 13947 ft | 340 kts | 230° |
| 2026-05-05 17:58 | 34.50044 | -116.95523 | 13686 ft | 334 kts | 229° |
| 2026-05-05 17:58 | 34.48494 | -116.97624 | 13157 ft | 333 kts | 229° |
| 2026-05-05 17:58 | 34.46965 | -116.99718 | 12632 ft | 332 kts | 230° |
| 2026-05-05 17:58 | 34.45397 | -117.01787 | 12115 ft | 331 kts | 225° |
| 2026-05-05 17:59 | 34.43618 | -117.03507 | 11623 ft | 329 kts | 214° |
| 2026-05-05 17:59 | 34.41616 | -117.04861 | 11126 ft | 328 kts | 208° |
| 2026-05-05 17:59 | 34.39584 | -117.06040 | 10630 ft | 326 kts | 206° |
| 2026-05-05 17:59 | 34.37539 | -117.07204 | 10337 ft | 317 kts | 206° |
| 2026-05-05 18:00 | 34.35609 | -117.08340 | 10219 ft | 303 kts | 207° |
| 2026-05-05 18:00 | 34.33775 | -117.09458 | 10111 ft | 290 kts | 208° |
| 2026-05-05 18:00 | 34.31990 | -117.10570 | 9958 ft | 281 kts | 208° |
| 2026-05-05 18:00 | 34.30278 | -117.11639 | 9957 ft | 277 kts | 208° |
| 2026-05-05 18:01 | 34.28556 | -117.12713 | 9954 ft | 278 kts | 208° |
| 2026-05-05 18:01 | 34.26861 | -117.13810 | 9950 ft | 276 kts | 213° |
| 2026-05-05 18:01 | 34.25248 | -117.15126 | 9928 ft | 275 kts | 217° |
| 2026-05-05 18:01 | 34.23702 | -117.16481 | 9917 ft | 276 kts | 217° |
| 2026-05-05 18:02 | 34.22109 | -117.17808 | 9902 ft | 277 kts | 215° |
| 2026-05-05 18:02 | 34.20498 | -117.19066 | 9898 ft | 277 kts | 213° |
| 2026-05-05 18:02 | 34.18866 | -117.20291 | 9898 ft | 276 kts | 213° |
| 2026-05-05 18:02 | 34.17216 | -117.21508 | 9896 ft | 276 kts | 213° |
| 2026-05-05 18:03 | 34.15626 | -117.22760 | 9735 ft | 278 kts | 221° |
| 2026-05-05 18:03 | 34.14485 | -117.24605 | 9133 ft | 277 kts | 247° |
| 2026-05-05 18:03 | 34.13647 | -117.26717 | 8506 ft | 278 kts | 239° |
| 2026-05-05 18:03 | 34.12467 | -117.28527 | 7912 ft | 278 kts | 228° |
| 2026-05-05 18:04 | 34.11100 | -117.30163 | 7257 ft | 277 kts | 225° |
| 2026-05-05 18:04 | 34.09743 | -117.31702 | 6587 ft | 260 kts | 224° |
| 2026-05-05 18:04 | 34.08485 | -117.33151 | 6043 ft | 242 kts | 225° |
| 2026-05-05 18:04 | 34.07308 | -117.34541 | 5540 ft | 229 kts | 226° |
| 2026-05-05 18:05 | 34.06261 | -117.35885 | 5105 ft | 215 kts | 233° |
| 2026-05-05 18:05 | 34.05622 | -117.37452 | 4677 ft | 206 kts | 261° |
| 2026-05-05 18:05 | 34.05581 | -117.39140 | 4266 ft | 200 kts | 272° |
| 2026-05-05 18:05 | 34.05618 | -117.40766 | 3861 ft | 190 kts | 270° |
| 2026-05-05 18:06 | 34.05601 | -117.42318 | 3536 ft | 177 kts | 267° |
| 2026-05-05 18:06 | 34.05556 | -117.43264 | 3391 ft | 168 kts | 266° |
| 2026-05-05 18:06 | 34.05517 | -117.45044 | 3125 ft | 150 kts | 269° |
| 2026-05-05 18:06 | 34.05508 | -117.46305 | 2902 ft | 147 kts | 269° |
| 2026-05-05 18:07 | 34.05500 | -117.47515 | 2706 ft | 144 kts | 269° |
| 2026-05-05 18:07 | 34.05500 | -117.48725 | 2508 ft | 143 kts | 269° |
| 2026-05-05 18:07 | 34.05500 | -117.49898 | 2319 ft | 140 kts | 269° |
| 2026-05-05 18:07 | 34.05498 | -117.51072 | 2130 ft | 140 kts | 269° |
| 2026-05-05 18:08 | 34.05498 | -117.52253 | 1941 ft | 140 kts | 269° |
| 2026-05-05 18:08 | 34.05497 | -117.53418 | 1753 ft | 139 kts | 269° |
| 2026-05-05 18:08 | 34.05497 | -117.54578 | 1572 ft | 139 kts | 269° |
| 2026-05-05 18:08 | 34.05495 | -117.55756 | 1385 ft | 140 kts | 269° |
| 2026-05-05 18:09 | 34.05501 | -117.56914 | 1196 ft | 138 kts | 269° |
| 2026-05-05 18:09 | 34.05495 | -117.58083 | 1017 ft | 136 kts | 269° |
| 2026-05-05 18:09 | 34.05492 | -117.59199 | 933 ft | 116 kts | 269° |
| 2026-05-05 18:09 | 34.05496 | -117.59881 | 930 ft | 49 kts | 271° |
| 2026-05-05 18:10 | 34.05495 | -117.60226 | 931 ft | 26 kts | 271° |
| 2026-05-05 18:10 | 34.05513 | -117.60377 | 933 ft | 13 kts | 283° |
| 2026-05-05 18:10 | 34.05540 | -117.60473 | 934 ft | 10 kts | 292° |
| 2026-05-05 18:10 | 34.05567 | -117.60538 | 935 ft | 7 kts | 301° |
| 2026-05-05 18:11 | 34.05584 | -117.60568 | 936 ft | 2 kts | 306° |
| 2026-05-05 18:11 | 34.05595 | -117.60586 | 936 ft | 2 kts | 307° |
| 2026-05-05 18:11 | 34.05612 | -117.60612 | 937 ft | 6 kts | 312° |
| 2026-05-05 18:11 | 34.05657 | -117.60669 | 938 ft | 12 kts | 314° |
| 2026-05-05 18:12 | 34.05723 | -117.60747 | 941 ft | 11 kts | 316° |
| 2026-05-05 18:12 | 34.05788 | -117.60754 | 942 ft | 10 kts | 45° |
| 2026-05-05 18:12 | 34.05801 | -117.60670 | 941 ft | 12 kts | 91° |
| 2026-05-05 18:12 | 34.05799 | -117.60546 | 941 ft | 17 kts | 90° |
| 2026-05-05 18:13 | 34.05799 | -117.60384 | 939 ft | 20 kts | 90° |
| 2026-05-05 18:13 | 34.05798 | -117.60209 | 938 ft | 20 kts | 90° |
| 2026-05-05 18:13 | 34.05799 | -117.60033 | 938 ft | 20 kts | 90° |
| 2026-05-05 18:13 | 34.05799 | -117.59859 | 937 ft | 21 kts | 90° |
| 2026-05-05 18:14 | 34.05798 | -117.59679 | 937 ft | 21 kts | 90° |
| 2026-05-05 18:14 | 34.05799 | -117.59506 | 937 ft | 20 kts | 90° |
| 2026-05-05 18:14 | 34.05799 | -117.59334 | 938 ft | 20 kts | 90° |
| 2026-05-05 18:14 | 34.05799 | -117.59164 | 938 ft | 20 kts | 90° |
| 2026-05-05 18:15 | 34.05802 | -117.59026 | 940 ft | 11 kts | 79° |
| 2026-05-05 18:15 | 34.05858 | -117.58985 | 941 ft | 9 kts | 359° |
| 2026-05-05 18:15 | 34.05897 | -117.58945 | 942 ft | 8 kts | 85° |
| 2026-05-05 18:15 | 34.05898 | -117.58881 | 942 ft | 7 kts | 90° |
| 2026-05-05 18:16 | 34.05899 | -117.58816 | 942 ft | 7 kts | 90° |
| 2026-05-05 18:16 | 34.05900 | -117.58755 | 943 ft | 5 kts | 75° |
| 2026-05-05 18:16 | 34.05931 | -117.58738 | 943 ft | 4 kts | 2° |
| 2026-05-05 18:16 | 34.05957 | -117.58739 | 944 ft | 2 kts | 360° |
| 2026-05-05 18:17 | 34.05962 | -117.58739 | 944 ft | 0 kts | 0° |